Time;durP1;ratioP1;P1;durP2;ratioP2;P2;SDS_P1;SDS_P2;PMS_P1;PMS_P2;Temp;Humidity;BMP_temperature;BMP_pressure;BME280_temperature;BME280_humidity;BME280_pressure;Samples;Min_cycle;Max_cycle;Signal;HPM_P1;HPM_P2
2023/01/11 00:00:17;;;;;;;1.90;1.50;;;9.10;81.00;;;;;;5073829;28;20399;-76
2023/01/11 00:02:44;;;;;;;1.60;1.20;;;9.00;83.00;;;;;;5055729;28;20407;-75
2023/01/11 00:05:10;;;;;;;1.60;1.20;;;9.00;83.80;;;;;;5087225;28;20519;-74
2023/01/11 00:07:36;;;;;;;1.50;1.40;;;9.00;82.40;;;;;;5093686;28;20386;-74
2023/01/11 00:10:03;;;;;;;3.07;1.10;;;9.00;83.30;;;;;;5073179;28;20550;-74
2023/01/11 00:12:30;;;;;;;2.00;1.60;;;9.10;82.80;;;;;;5073849;28;20818;-74
2023/01/11 00:14:56;;;;;;;1.85;1.50;;;9.00;85.00;;;;;;5073093;28;20724;-74
2023/01/11 00:17:22;;;;;;;1.70;1.60;;;9.00;86.30;;;;;;5072802;28;20388;-74
2023/01/11 00:19:47;;;;;;;1.60;1.20;;;9.10;86.10;;;;;;5073389;28;20412;-75
2023/01/11 00:22:13;;;;;;;1.90;1.50;;;9.00;86.80;;;;;;5093443;28;20429;-73
2023/01/11 00:24:38;;;;;;;3.20;1.70;;;9.00;85.90;;;;;;5115259;28;20393;-74
2023/01/11 00:27:04;;;;;;;2.30;1.60;;;9.00;85.50;;;;;;5100191;28;20399;-75
2023/01/11 00:29:29;;;;;;;2.20;1.33;;;9.00;85.50;;;;;;5071155;28;20512;-75
2023/01/11 00:31:55;;;;;;;3.85;2.00;;;9.10;83.50;;;;;;5071019;28;20764;-76
2023/01/11 00:34:20;;;;;;;2.90;2.00;;;9.10;84.00;;;;;;5077499;28;20379;-75
2023/01/11 00:36:46;;;;;;;1.70;1.40;;;9.10;85.20;;;;;;5076550;28;20384;-75
2023/01/11 00:39:11;;;;;;;1.48;1.38;;;9.10;83.90;;;;;;5056466;28;20383;-75
2023/01/11 00:50:07;;;;;;;3.30;2.00;;;9.20;83.60;;;;;;5066387;28;20457;-75
2023/01/11 00:52:32;;;;;;;1.90;1.48;;;9.30;82.40;;;;;;5071767;28;20945;-74
2023/01/11 00:54:58;;;;;;;1.90;1.60;;;9.20;81.50;;;;;;5071980;28;20392;-75
2023/01/11 00:57:23;;;;;;;2.45;1.65;;;9.30;82.20;;;;;;5071224;28;20386;-73
2023/01/11 00:59:49;;;;;;;4.97;2.20;;;9.30;82.30;;;;;;5053303;28;20490;-74
2023/01/11 01:02:15;;;;;;;2.80;1.70;;;9.20;82.80;;;;;;5070466;28;20449;-75
2023/01/11 01:04:40;;;;;;;2.20;1.90;;;9.20;82.70;;;;;;5071667;28;20368;-76
2023/01/11 01:07:07;;;;;;;1.80;1.60;;;9.30;83.00;;;;;;5071413;28;20732;-74
2023/01/11 01:09:32;;;;;;;1.90;1.50;;;9.20;81.80;;;;;;5071443;28;20841;-75
2023/01/11 01:12:00;;;;;;;2.10;1.90;;;9.20;83.80;;;;;;5071122;28;20411;-74
2023/01/11 01:14:29;;;;;;;3.00;1.50;;;9.30;83.10;;;;;;5071527;28;20475;-75
2023/01/11 01:16:57;;;;;;;3.28;2.00;;;9.20;82.40;;;;;;5053777;28;20379;-75
2023/01/11 01:19:24;;;;;;;2.27;2.00;;;9.40;82.30;;;;;;5070850;28;20375;-75
2023/01/11 01:21:50;;;;;;;2.20;2.00;;;9.40;80.70;;;;;;5070631;28;20441;-74
2023/01/11 01:24:16;;;;;;;3.23;1.90;;;9.30;82.20;;;;;;5070984;28;20387;-74
2023/01/11 01:26:41;;;;;;;1.90;1.60;;;9.30;82.30;;;;;;5053187;28;20395;-74
2023/01/11 01:29:07;;;;;;;2.00;1.70;;;9.30;82.00;;;;;;5070996;28;20743;-73
2023/01/11 01:31:33;;;;;;;1.60;1.50;;;9.30;80.60;;;;;;5052664;28;20418;-75
2023/01/11 01:33:58;;;;;;;3.08;1.80;;;9.30;79.70;;;;;;5080303;28;20391;-74
2023/01/11 01:36:24;;;;;;;1.70;1.60;;;9.30;82.30;;;;;;5094902;28;20391;-72
2023/01/11 01:38:49;;;;;;;2.78;2.30;;;9.30;82.30;;;;;;5093798;28;20376;-73
2023/01/11 01:41:15;;;;;;;1.98;1.60;;;9.30;82.50;;;;;;5092662;28;20398;-74
2023/01/11 01:43:46;;;;;;;1.80;1.60;;;9.40;82.50;;;;;;5093325;28;20368;-72
2023/01/11 01:46:11;;;;;;;2.42;1.83;;;9.30;81.30;;;;;;5080714;28;20395;-74
2023/01/11 01:48:39;;;;;;;1.70;1.30;;;9.40;82.50;;;;;;5073008;28;20384;-75
2023/01/11 01:51:07;;;;;;;6.20;1.40;;;9.40;82.00;;;;;;5053445;28;20819;-74
2023/01/11 01:53:39;;;;;;;1.30;1.10;;;9.40;81.00;;;;;;5072172;28;20721;-73
2023/01/11 01:56:14;;;;;;;1.65;1.30;;;9.50;79.80;;;;;;5053588;28;20387;-73
2023/01/11 01:58:45;;;;;;;1.67;1.20;;;9.50;81.70;;;;;;5071885;28;20398;-74
2023/01/11 02:04:02;;;;;;;1.70;1.30;;;9.50;83.30;;;;;;5076165;28;20394;-75
2023/01/11 02:06:28;;;;;;;1.50;1.40;;;9.60;80.20;;;;;;5078274;28;20372;-74
2023/01/11 02:09:02;;;;;;;1.33;1.23;;;9.60;80.90;;;;;;5080302;28;20410;-74
2023/01/11 02:11:30;;;;;;;2.45;1.60;;;9.60;82.40;;;;;;5083036;28;20399;-73
2023/01/11 02:14:01;;;;;;;2.20;2.00;;;9.60;83.40;;;;;;5088436;28;20387;-74
2023/01/11 02:16:26;;;;;;;2.35;1.75;;;9.70;86.40;;;;;;5076058;28;20380;-74
2023/01/11 02:18:53;;;;;;;1.40;1.30;;;9.60;89.60;;;;;;5074220;28;20380;-75
2023/01/11 02:21:55;;;;;;;2.00;1.80;;;9.60;93.00;;;;;;5074050;28;20402;-75
2023/01/11 02:24:54;;;;;;;2.13;1.75;;;9.40;98.10;;;;;;5073844;28;20392;-74
2023/01/11 02:27:46;;;;;;;3.40;1.57;;;9.40;99.90;;;;;;5073985;28;20974;-75
2023/01/11 02:30:29;;;;;;;1.60;1.50;;;9.50;99.90;;;;;;5074160;28;20493;-74
2023/01/11 02:33:16;;;;;;;2.15;1.95;;;9.40;99.90;;;;;;5073495;28;20447;-74
2023/01/11 02:36:10;;;;;;;2.25;1.63;;;9.30;99.90;;;;;;5074074;28;20380;-75
2023/01/11 02:39:01;;;;;;;2.10;1.52;;;9.30;99.90;;;;;;5073848;28;20872;-74
2023/01/11 02:45:01;;;;;;;2.45;1.95;;;9.30;99.90;;;;;;5073653;28;20417;-75
2023/01/11 02:47:32;;;;;;;1.80;1.60;;;9.30;99.90;;;;;;5073652;28;20376;-75
2023/01/11 02:50:08;;;;;;;1.73;1.30;;;9.30;99.90;;;;;;5073438;28;20383;-73
2023/01/11 02:53:15;;;;;;;1.30;1.20;;;9.20;99.90;;;;;;5073050;28;20382;-73
2023/01/11 02:55:47;;;;;;;2.03;1.60;;;9.20;99.90;;;;;;5055335;28;20388;-74
2023/01/11 02:58:15;;;;;;;1.50;1.40;;;9.30;99.90;;;;;;5073271;28;20474;-74
2023/01/11 03:00:42;;;;;;;1.80;1.30;;;9.30;99.90;;;;;;5073315;28;20804;-75
2023/01/11 03:03:18;;;;;;;2.30;1.42;;;9.20;99.90;;;;;;5072940;28;20394;-74
2023/01/11 03:05:55;;;;;;;1.98;1.77;;;9.30;99.90;;;;;;5073302;28;20384;-74
2023/01/11 03:08:37;;;;;;;1.88;1.77;;;9.30;99.90;;;;;;5073332;28;20398;-73
2023/01/11 03:11:13;;;;;;;1.63;1.50;;;9.30;99.90;;;;;;5072644;28;20920;-75
2023/01/11 03:13:47;;;;;;;2.00;1.67;;;9.30;99.90;;;;;;5073343;28;20376;-76
2023/01/11 03:16:13;;;;;;;3.20;2.25;;;9.30;99.90;;;;;;5073218;28;20422;-76
2023/01/11 03:19:14;;;;;;;2.40;2.20;;;9.30;99.90;;;;;;5073310;28;20384;-74
2023/01/11 03:22:14;;;;;;;1.60;1.50;;;9.30;99.90;;;;;;5074106;28;20475;-74
2023/01/11 03:24:51;;;;;;;2.60;1.80;;;9.40;99.90;;;;;;5073511;28;20379;-73
2023/01/11 03:27:20;;;;;;;3.50;2.00;;;9.40;99.90;;;;;;5074045;28;20732;-74
2023/01/11 03:30:01;;;;;;;4.03;1.70;;;9.40;99.90;;;;;;5075812;28;20471;-74
2023/01/11 03:32:47;;;;;;;3.20;1.80;;;9.40;99.90;;;;;;5075402;28;20384;-74
2023/01/11 03:35:31;;;;;;;1.70;1.60;;;9.40;99.90;;;;;;5073501;28;20372;-73
2023/01/11 03:38:11;;;;;;;2.35;1.90;;;9.40;99.90;;;;;;5072481;28;20380;-73
2023/01/11 03:40:45;;;;;;;2.20;2.00;;;9.40;99.90;;;;;;5072403;28;20730;-73
2023/01/11 03:43:13;;;;;;;2.50;2.30;;;9.40;99.90;;;;;;5071914;28;20388;-73
2023/01/11 03:45:52;;;;;;;2.50;2.17;;;9.50;99.90;;;;;;5054175;28;20809;-74
2023/01/11 03:48:26;;;;;;;1.95;1.85;;;9.50;99.90;;;;;;5071973;28;20453;-74
2023/01/11 03:50:54;;;;;;;2.53;2.10;;;9.50;99.90;;;;;;5071689;28;20395;-74
2023/01/11 03:53:22;;;;;;;2.70;2.00;;;9.40;99.90;;;;;;5071785;28;20756;-74
2023/01/11 03:55:57;;;;;;;2.53;2.33;;;9.50;99.90;;;;;;5054433;28;20376;-74
2023/01/11 03:58:25;;;;;;;3.50;2.40;;;9.50;99.90;;;;;;5071983;28;20379;-74
2023/01/11 04:00:53;;;;;;;2.25;2.13;;;9.50;99.90;;;;;;5053764;28;20471;-73
2023/01/11 04:03:19;;;;;;;2.00;1.90;;;9.50;99.90;;;;;;5072126;28;20467;-73
2023/01/11 04:05:47;;;;;;;2.70;2.00;;;9.50;99.90;;;;;;5072132;28;20582;-74
2023/01/11 04:08:13;;;;;;;2.30;1.80;;;9.50;99.90;;;;;;5072035;28;20408;-74
2023/01/11 04:10:39;;;;;;;2.73;2.10;;;9.60;99.90;;;;;;5071748;28;20908;-74
2023/01/11 04:13:04;;;;;;;2.10;1.90;;;9.60;99.90;;;;;;5071294;28;20384;-74
2023/01/11 04:15:31;;;;;;;4.30;2.40;;;9.60;99.90;;;;;;5071715;28;20375;-74
2023/01/11 04:18:04;;;;;;;3.20;1.70;;;9.60;99.90;;;;;;5071514;28;20433;-73
2023/01/11 04:20:35;;;;;;;3.30;2.07;;;9.60;99.90;;;;;;5053646;28;20481;-73
2023/01/11 04:23:01;;;;;;;3.40;2.00;;;9.60;99.90;;;;;;5053128;28;20411;-73
2023/01/11 04:25:27;;;;;;;2.65;2.30;;;9.60;99.90;;;;;;5080623;28;20391;-73
2023/01/11 04:27:52;;;;;;;3.00;2.00;;;9.60;99.90;;;;;;5090210;28;20372;-73
2023/01/11 04:30:18;;;;;;;2.30;1.80;;;9.60;99.90;;;;;;5092178;28;20442;-72
2023/01/11 04:32:44;;;;;;;2.67;2.45;;;9.60;99.90;;;;;;5090962;28;20674;-74
2023/01/11 04:35:09;;;;;;;3.00;2.35;;;9.60;99.90;;;;;;5090690;28;20447;-73
2023/01/11 04:37:35;;;;;;;4.10;1.90;;;9.70;99.90;;;;;;5091332;28;20372;-73
2023/01/11 04:40:00;;;;;;;2.13;1.92;;;9.70;99.90;;;;;;5090310;28;20414;-75
2023/01/11 04:42:26;;;;;;;2.75;2.08;;;9.60;99.90;;;;;;5083056;28;20376;-73
2023/01/11 04:44:52;;;;;;;1.80;1.70;;;9.70;99.90;;;;;;5076847;28;20383;-74
2023/01/11 04:47:21;;;;;;;3.40;2.00;;;9.70;99.90;;;;;;5072534;28;20379;-73
2023/01/11 04:49:46;;;;;;;5.40;1.98;;;9.70;99.90;;;;;;5074129;28;20880;-74
2023/01/11 04:52:14;;;;;;;5.40;2.10;;;9.70;99.90;;;;;;5071399;28;20414;-73
2023/01/11 04:54:40;;;;;;;2.40;2.20;;;9.70;99.90;;;;;;5071742;28;20384;-73
2023/01/11 04:57:06;;;;;;;2.00;1.90;;;9.80;99.90;;;;;;5070965;28;20380;-73
2023/01/11 04:59:32;;;;;;;2.63;2.03;;;9.80;99.90;;;;;;5072078;28;20463;-75
2023/01/11 05:01:58;;;;;;;2.30;2.17;;;9.80;99.90;;;;;;5070861;28;20375;-74
2023/01/11 05:04:23;;;;;;;2.30;2.10;;;9.80;99.90;;;;;;5071307;28;20907;-74
2023/01/11 05:06:49;;;;;;;2.70;2.47;;;9.90;99.90;;;;;;5070734;28;20375;-74
2023/01/11 05:09:16;;;;;;;3.00;2.10;;;9.80;99.90;;;;;;5070649;28;20388;-74
2023/01/11 05:11:42;;;;;;;4.78;2.20;;;9.80;99.90;;;;;;5070328;28;20424;-73
2023/01/11 05:14:08;;;;;;;3.08;2.13;;;9.80;99.90;;;;;;5070513;28;20394;-74
2023/01/11 05:16:34;;;;;;;2.50;2.30;;;9.80;99.90;;;;;;5070534;28;20817;-73
2023/01/11 05:19:00;;;;;;;2.50;2.30;;;9.90;99.90;;;;;;5070475;28;20482;-73
2023/01/11 05:21:34;;;;;;;3.35;2.00;;;9.90;99.90;;;;;;5070288;28;20384;-73
2023/01/11 05:24:02;;;;;;;4.80;2.45;;;9.90;99.90;;;;;;5070686;28;20803;-73
2023/01/11 05:26:31;;;;;;;2.50;2.30;;;9.90;99.90;;;;;;5070464;28;20392;-73
2023/01/11 05:29:00;;;;;;;3.45;2.58;;;9.90;99.90;;;;;;5070636;28;20787;-73
2023/01/11 05:31:26;;;;;;;2.40;2.20;;;9.90;99.90;;;;;;5069947;28;20414;-73
2023/01/11 05:33:52;;;;;;;3.75;2.30;;;10.00;99.90;;;;;;5070748;28;20797;-74
2023/01/11 05:36:20;;;;;;;2.72;2.30;;;10.00;99.90;;;;;;5070992;28;20375;-73
2023/01/11 05:38:47;;;;;;;2.60;2.40;;;10.10;99.90;;;;;;5070697;28;20382;-73
2023/01/11 05:41:14;;;;;;;3.38;2.58;;;10.10;99.90;;;;;;5052730;28;20442;-74
2023/01/11 05:46:26;;;;;;;4.00;2.08;;;10.20;99.90;;;;;;5075654;28;20382;-76
2023/01/11 05:48:54;;;;;;;2.60;2.40;;;10.20;99.90;;;;;;5080663;28;20756;-76
2023/01/11 05:51:19;;;;;;;2.50;2.30;;;10.20;99.90;;;;;;5081841;28;20404;-75
2023/01/11 05:53:45;;;;;;;5.93;2.22;;;10.20;99.90;;;;;;5080112;28;20445;-75
2023/01/11 05:56:10;;;;;;;3.00;2.30;;;10.20;99.90;;;;;;5082291;28;20383;-74
2023/01/11 05:58:36;;;;;;;3.55;2.35;;;10.20;99.90;;;;;;5077132;28;20466;-75
2023/01/11 06:01:02;;;;;;;2.60;2.10;;;10.20;99.90;;;;;;5075514;28;20383;-76
2023/01/11 06:03:28;;;;;;;2.90;2.40;;;10.20;99.90;;;;;;5075635;28;20396;-75
2023/01/11 06:05:53;;;;;;;4.07;2.50;;;10.20;99.90;;;;;;5074667;28;20708;-74
2023/01/11 06:08:20;;;;;;;2.92;2.40;;;10.30;99.90;;;;;;5074722;28;20890;-75
2023/01/11 06:10:53;;;;;;;5.40;2.78;;;10.30;99.90;;;;;;5074286;28;20404;-75
2023/01/11 06:13:25;;;;;;;3.20;2.20;;;10.30;99.90;;;;;;5074071;28;20390;-74
2023/01/11 06:15:59;;;;;;;4.05;2.20;;;10.40;99.90;;;;;;5074422;28;20379;-73
2023/01/11 06:18:25;;;;;;;2.75;1.77;;;10.40;99.90;;;;;;5074603;28;20394;-76
2023/01/11 06:20:52;;;;;;;2.25;1.70;;;10.40;99.90;;;;;;5076519;28;20884;-75
2023/01/11 06:23:18;;;;;;;2.13;1.73;;;10.50;99.90;;;;;;5076920;28;20432;-75
2023/01/11 06:25:44;;;;;;;4.43;1.60;;;10.50;99.90;;;;;;5076910;28;20388;-76
2023/01/11 06:28:10;;;;;;;4.80;2.10;;;10.60;99.90;;;;;;5077405;28;20379;-73
2023/01/11 06:30:36;;;;;;;2.83;1.60;;;10.60;99.90;;;;;;5076205;28;20458;-75
2023/01/11 06:33:05;;;;;;;3.53;1.60;;;10.60;99.90;;;;;;5073610;28;20520;-75
2023/01/11 06:35:33;;;;;;;2.67;2.03;;;10.60;99.90;;;;;;5074144;28;20470;-75
2023/01/11 06:37:58;;;;;;;2.17;1.50;;;10.60;99.90;;;;;;5074054;28;20375;-77
2023/01/11 06:40:24;;;;;;;3.47;1.50;;;10.70;99.90;;;;;;5074643;28;20398;-75
2023/01/11 06:42:50;;;;;;;3.13;2.20;;;10.70;99.90;;;;;;5073726;28;20383;-75
2023/01/11 06:45:15;;;;;;;4.27;1.83;;;10.70;99.90;;;;;;5074789;28;20462;-74
2023/01/11 06:47:41;;;;;;;4.33;1.80;;;10.80;99.90;;;;;;5074021;28;20406;-75
2023/01/11 06:50:07;;;;;;;3.90;1.70;;;10.80;99.90;;;;;;5073176;28;20899;-74
2023/01/11 06:52:33;;;;;;;3.72;2.20;;;10.70;99.90;;;;;;5072905;28;20848;-74
2023/01/11 06:54:58;;;;;;;3.60;2.20;;;10.80;99.90;;;;;;5055825;28;20423;-75
2023/01/11 06:57:24;;;;;;;4.40;1.90;;;10.70;99.90;;;;;;5073569;28;20395;-74
2023/01/11 06:59:50;;;;;;;2.70;1.57;;;10.90;99.90;;;;;;5054814;28;20407;-74
2023/01/11 07:02:15;;;;;;;2.43;1.60;;;10.90;99.90;;;;;;5073465;28;20817;-74
2023/01/11 07:04:41;;;;;;;3.90;2.40;;;11.00;99.90;;;;;;5055905;28;20392;-76
2023/01/11 07:07:06;;;;;;;2.10;1.70;;;11.00;99.90;;;;;;5073411;28;20391;-75
2023/01/11 07:09:32;;;;;;;3.50;1.10;;;11.20;99.90;;;;;;5075475;28;20392;-74
2023/01/11 07:11:57;;;;;;;2.60;0.90;;;11.20;99.90;;;;;;5073341;28;20415;-75
2023/01/11 07:14:23;;;;;;;1.60;0.98;;;11.30;99.90;;;;;;5083794;28;20464;-75
2023/01/11 07:16:49;;;;;;;1.58;0.90;;;11.40;99.90;;;;;;5087820;28;20867;-74
2023/01/11 07:19:16;;;;;;;1.13;0.90;;;11.40;99.90;;;;;;5085641;28;20368;-73
2023/01/11 07:21:42;;;;;;;2.80;1.10;;;11.50;99.90;;;;;;5089910;28;20383;-73
2023/01/11 07:24:10;;;;;;;1.10;0.90;;;11.60;99.90;;;;;;5091548;28;20662;-74
2023/01/11 07:26:40;;;;;;;4.40;2.40;;;11.70;99.90;;;;;;5091987;28;20384;-74
2023/01/11 07:29:06;;;;;;;4.30;1.50;;;11.70;99.90;;;;;;5091046;28;20426;-75
2023/01/11 07:31:32;;;;;;;2.00;1.13;;;11.70;99.90;;;;;;5076125;28;20448;-75
2023/01/11 07:33:57;;;;;;;1.50;1.20;;;11.70;99.90;;;;;;5074314;28;20384;-76
2023/01/11 07:36:23;;;;;;;2.83;1.70;;;11.70;99.90;;;;;;5056425;28;20442;-74
2023/01/11 07:38:48;;;;;;;8.57;5.10;;;11.70;99.90;;;;;;5083093;28;20423;-72
2023/01/11 07:43:58;;;;;;;10.85;6.55;;;11.80;99.90;;;;;;5071797;28;20814;-75
2023/01/11 07:46:24;;;;;;;10.07;6.53;;;11.70;99.90;;;;;;5075851;28;20401;-73
2023/01/11 07:48:49;;;;;;;4.93;2.00;;;11.70;99.90;;;;;;5072499;28;20388;-75
2023/01/11 07:51:19;;;;;;;17.00;12.10;;;11.70;99.90;;;;;;5069675;28;20431;-74
2023/01/11 07:53:45;;;;;;;58.75;36.80;;;11.70;99.90;;;;;;5069596;28;20394;-73
2023/01/11 07:56:11;;;;;;;19.92;13.50;;;11.70;99.90;;;;;;5069109;28;20387;-73
2023/01/11 07:58:36;;;;;;;39.75;27.25;;;11.70;99.90;;;;;;5069796;28;20737;-72
2023/01/11 08:01:02;;;;;;;8.20;7.07;;;11.60;99.90;;;;;;5069114;28;20406;-74
2023/01/11 08:03:27;;;;;;;8.10;6.67;;;11.60;99.90;;;;;;5068811;28;20486;-74
2023/01/11 08:05:53;;;;;;;9.13;6.83;;;11.60;99.90;;;;;;5070515;28;20403;-75
2023/01/11 08:08:19;;;;;;;6.35;5.45;;;11.60;99.90;;;;;;5067564;28;20387;-74
2023/01/11 08:10:45;;;;;;;4.90;4.30;;;11.60;99.90;;;;;;5067869;28;20502;-74
2023/01/11 08:15:58;;;;;;;4.85;3.60;;;11.70;99.90;;;;;;5089314;28;20385;-74
2023/01/11 08:18:23;;;;;;;4.00;3.40;;;11.70;99.90;;;;;;5085804;28;20412;-75
2023/01/11 08:20:51;;;;;;;5.20;4.03;;;11.70;99.90;;;;;;5070424;28;20419;-74
2023/01/11 08:23:17;;;;;;;7.07;4.90;;;11.80;99.90;;;;;;5071087;28;20399;-75
2023/01/11 08:25:43;;;;;;;6.20;4.90;;;11.70;99.90;;;;;;5069879;28;21111;-73
2023/01/11 08:28:10;;;;;;;5.87;4.90;;;11.80;99.90;;;;;;5068853;28;20495;-71
2023/01/11 08:30:37;;;;;;;7.05;4.60;;;11.90;99.90;;;;;;5068630;28;20447;-72
2023/01/11 08:33:04;;;;;;;14.07;4.88;;;11.80;99.90;;;;;;5068689;28;20387;-72
2023/01/11 08:35:31;;;;;;;5.55;2.70;;;11.90;99.90;;;;;;5068205;28;20392;-72
2023/01/11 08:37:56;;;;;;;5.28;2.45;;;11.90;99.90;;;;;;5068911;28;20749;-71
2023/01/11 08:40:24;;;;;;;2.53;2.33;;;11.90;99.90;;;;;;5068759;28;20384;-72
2023/01/11 08:42:55;;;;;;;5.55;2.20;;;11.80;99.90;;;;;;5050475;28;20418;-72
2023/01/11 08:45:21;;;;;;;4.30;2.40;;;11.70;99.90;;;;;;5054337;28;20438;-73
2023/01/11 08:47:47;;;;;;;2.20;1.90;;;11.60;99.90;;;;;;5069337;28;20856;-72
2023/01/11 08:50:15;;;;;;;6.63;2.30;;;11.50;99.90;;;;;;5068188;28;20403;-70
2023/01/11 08:52:42;;;;;;;8.20;2.03;;;11.40;99.90;;;;;;5069082;28;20376;-72
2023/01/11 08:55:08;;;;;;;7.70;2.10;;;11.50;99.90;;;;;;5053148;28;20395;-72
2023/01/11 08:57:35;;;;;;;8.15;2.33;;;11.40;99.90;;;;;;5069373;28;20395;-72
2023/01/11 09:00:05;;;;;;;5.00;2.70;;;11.40;99.90;;;;;;5076633;28;20474;-72
2023/01/11 09:02:31;;;;;;;16.67;2.80;;;11.40;99.90;;;;;;5082205;28;20403;-73
2023/01/11 09:04:57;;;;;;;14.73;3.47;;;11.40;99.90;;;;;;5084537;28;20878;-72
2023/01/11 09:07:22;;;;;;;12.60;3.50;;;11.40;99.90;;;;;;5088953;28;20419;-72
2023/01/11 09:09:49;;;;;;;15.18;3.60;;;11.30;99.90;;;;;;5085064;28;20412;-72
2023/01/11 09:12:14;;;;;;;14.80;4.00;;;11.50;99.90;;;;;;5058404;28;20405;-73
2023/01/11 09:14:40;;;;;;;16.60;4.20;;;11.30;99.90;;;;;;5064165;28;20402;-71
2023/01/11 09:17:06;;;;;;;17.45;4.30;;;11.30;97.80;;;;;;5072461;28;20388;-72
2023/01/11 09:19:32;;;;;;;19.13;4.57;;;11.30;96.20;;;;;;5056109;28;20471;-72
2023/01/11 09:22:01;;;;;;;20.60;4.65;;;11.30;98.20;;;;;;5054130;28;20388;-71
2023/01/11 09:24:27;;;;;;;31.52;11.23;;;11.30;98.00;;;;;;5097648;22;20430;-72
2023/01/11 09:26:52;;;;;;;15.27;4.00;;;11.40;98.60;;;;;;5090140;28;20378;-74
2023/01/11 09:29:18;;;;;;;16.47;4.73;;;11.40;98.60;;;;;;5090283;28;20374;-73
2023/01/11 09:31:44;;;;;;;14.20;4.10;;;11.30;99.90;;;;;;5090204;28;20576;-74
2023/01/11 09:34:11;;;;;;;15.70;4.40;;;11.30;99.90;;;;;;5090231;28;20467;-73
2023/01/11 09:36:39;;;;;;;16.25;4.38;;;11.30;99.90;;;;;;5090270;28;20410;-74
2023/01/11 09:39:08;;;;;;;12.15;4.32;;;11.30;99.90;;;;;;5090402;28;20370;-74
2023/01/11 09:41:53;;;;;;;19.30;5.22;;;11.30;99.90;;;;;;5090189;28;20378;-74
2023/01/11 09:44:24;;;;;;;13.40;4.72;;;11.30;99.90;;;;;;5071590;28;20774;-74
2023/01/11 09:46:55;;;;;;;20.95;4.88;;;11.40;99.90;;;;;;5090202;28;20439;-73
2023/01/11 09:49:26;;;;;;;16.42;5.30;;;11.30;99.90;;;;;;5089659;28;20384;-73
2023/01/11 09:52:04;;;;;;;20.02;4.90;;;11.30;99.90;;;;;;5090254;28;20405;-73
2023/01/11 09:54:30;;;;;;;23.88;5.40;;;11.30;99.90;;;;;;5050547;28;20400;-72
2023/01/11 09:57:11;;;;;;;18.92;4.43;;;11.30;99.90;;;;;;5049986;28;20381;-75
2023/01/11 09:59:56;;;;;;;19.95;4.80;;;11.50;97.60;;;;;;5050161;28;20417;-72
2023/01/11 10:02:58;;;;;;;19.75;5.70;;;11.50;96.70;;;;;;5050769;28;20431;-74
2023/01/11 10:05:50;;;;;;;20.20;5.78;;;11.50;93.10;;;;;;5045868;28;20409;-73
2023/01/11 10:08:34;;;;;;;22.33;6.30;;;11.40;93.40;;;;;;5059894;28;20394;-74
2023/01/11 10:11:29;;;;;;;17.17;5.15;;;11.40;92.60;;;;;;5048300;28;20947;-73
2023/01/11 10:14:20;;;;;;;22.60;5.38;;;11.40;90.20;;;;;;5048080;28;20420;-74
2023/01/11 10:16:55;;;;;;;28.48;5.15;;;11.40;84.10;;;;;;5054040;28;20477;-72
2023/01/11 10:19:25;;;;;;;24.02;5.00;;;11.50;84.00;;;;;;5062098;28;20462;-73
2023/01/11 10:22:30;;;;;;;17.45;4.30;;;11.50;82.60;;;;;;5067843;28;20384;-72
2023/01/11 10:25:17;;;;;;;17.42;4.50;;;11.50;76.40;;;;;;5058093;28;20554;-73
2023/01/11 10:28:00;;;;;;;20.60;5.13;;;11.40;76.10;;;;;;5060438;28;20508;-73
2023/01/11 10:30:51;;;;;;;24.33;4.55;;;11.40;76.40;;;;;;5069719;28;20400;-74
2023/01/11 10:33:57;;;;;;;21.17;5.47;;;11.50;75.90;;;;;;5055074;28;20392;-73
2023/01/11 10:41:55;;;;;;;18.20;5.07;;;11.60;73.40;;;;;;5073084;28;20392;-73
2023/01/11 10:44:36;;;;;;;23.55;4.85;;;11.60;73.20;;;;;;5073184;28;20391;-72
2023/01/11 10:47:02;;;;;;;19.13;4.35;;;11.60;73.50;;;;;;5073034;28;20384;-72
2023/01/11 10:49:47;;;;;;;19.15;4.57;;;11.60;74.40;;;;;;5073615;28;20426;-75
2023/01/11 10:52:26;;;;;;;24.00;5.50;;;11.50;76.00;;;;;;5072446;28;20485;-73
2023/01/11 10:54:54;;;;;;;17.60;6.07;;;11.50;73.50;;;;;;5073110;28;20371;-73
2023/01/11 10:58:05;;;;;;;22.65;5.95;;;11.60;72.70;;;;;;5072853;28;20384;-73
2023/01/11 11:00:50;;;;;;;27.10;6.35;;;11.50;72.70;;;;;;5073094;28;20748;-74
2023/01/11 11:03:37;;;;;;;20.85;6.30;;;11.40;71.30;;;;;;5072488;28;20380;-74
2023/01/11 11:06:20;;;;;;;22.70;5.90;;;11.30;75.10;;;;;;5072523;28;20464;-73
2023/01/11 11:09:05;;;;;;;25.80;5.53;;;11.30;73.40;;;;;;5072376;28;20421;-72
2023/01/11 11:11:37;;;;;;;20.10;6.32;;;11.30;72.20;;;;;;5072381;28;20887;-73
2023/01/11 11:14:17;;;;;;;22.90;6.57;;;11.20;73.40;;;;;;5072897;28;20384;-74
2023/01/11 11:17:09;;;;;;;23.33;6.38;;;11.30;72.40;;;;;;5072802;28;20415;-73
2023/01/11 11:19:34;;;;;;;23.92;5.70;;;11.30;72.90;;;;;;5059182;28;20402;-73
2023/01/11 11:22:00;;;;;;;20.92;7.03;;;11.50;71.70;;;;;;5072165;28;20470;-73
2023/01/11 11:24:39;;;;;;;20.13;6.50;;;11.70;69.10;;;;;;5071951;28;20387;-72
2023/01/11 11:27:38;;;;;;;20.87;6.10;;;11.80;69.10;;;;;;5072327;28;20474;-74
2023/01/11 11:30:20;;;;;;;27.20;6.70;;;11.80;68.40;;;;;;5059388;28;20388;-73
2023/01/11 11:32:56;;;;;;;20.27;6.90;;;11.80;68.20;;;;;;5072730;28;20457;-74
2023/01/11 11:35:36;;;;;;;17.23;7.70;;;11.90;65.00;;;;;;5061767;28;20394;-75
2023/01/11 11:38:03;;;;;;;22.02;7.10;;;12.10;65.50;;;;;;5067504;28;20399;-75
2023/01/11 11:40:35;;;;;;;20.80;7.00;;;12.20;61.10;;;;;;5082963;28;20967;-75
2023/01/11 11:43:22;;;;;;;18.58;7.28;;;12.10;57.60;;;;;;5077879;28;20481;-75
2023/01/11 11:45:56;;;;;;;20.13;6.40;;;12.10;59.00;;;;;;5092559;28;20715;-76
2023/01/11 11:48:23;;;;;;;23.07;5.90;;;11.80;58.10;;;;;;5092017;28;20461;-75
2023/01/11 11:50:51;;;;;;;28.75;6.85;;;11.80;55.90;;;;;;5091875;28;20473;-74
2023/01/11 11:53:22;;;;;;;20.20;5.75;;;11.60;57.00;;;;;;5079443;28;20416;-73
2023/01/11 11:55:50;;;;;;;16.13;6.03;;;11.50;57.60;;;;;;5072159;28;20887;-74
2023/01/11 11:58:20;;;;;;;22.50;6.15;;;11.40;57.80;;;;;;5075737;28;20774;-76
2023/01/11 12:00:48;;;;;;;22.60;6.68;;;11.30;59.90;;;;;;5053683;28;20383;-76
2023/01/11 12:03:17;;;;;;;26.55;7.35;;;11.20;61.90;;;;;;5071216;28;20388;-75
2023/01/11 12:05:52;;;;;;;19.70;5.95;;;11.10;62.20;;;;;;5059572;28;20451;-74
2023/01/11 12:08:20;;;;;;;19.23;6.90;;;11.20;61.20;;;;;;5080047;28;20409;-74
2023/01/11 12:10:56;;;;;;;17.15;5.55;;;11.40;60.40;;;;;;5034683;28;20504;-76
2023/01/11 12:13:32;;;;;;;18.65;5.70;;;11.50;56.80;;;;;;5056354;28;20784;-76
2023/01/11 12:16:06;;;;;;;16.95;4.95;;;11.70;57.00;;;;;;5049826;28;20656;-75
2023/01/11 12:18:42;;;;;;;17.17;4.47;;;11.80;50.50;;;;;;5052915;28;20477;-74
2023/01/11 12:21:21;;;;;;;17.60;5.60;;;11.70;50.70;;;;;;5049263;28;21225;-74
2023/01/11 12:24:06;;;;;;;17.42;4.38;;;11.60;49.60;;;;;;5071017;28;20855;-74
2023/01/11 12:27:10;;;;;;;19.08;4.88;;;11.50;51.20;;;;;;5073388;28;20490;-76
2023/01/11 12:29:50;;;;;;;19.98;4.47;;;11.40;52.60;;;;;;5065981;28;20425;-75
2023/01/11 12:32:40;;;;;;;18.17;4.80;;;11.40;54.20;;;;;;5050789;28;20449;-76
2023/01/11 12:35:19;;;;;;;20.55;4.63;;;11.40;53.40;;;;;;5055069;28;20413;-76
2023/01/11 12:38:21;;;;;;;20.40;4.72;;;11.30;53.60;;;;;;5065513;28;20395;-73
2023/01/11 12:40:51;;;;;;;21.13;4.83;;;11.30;52.60;;;;;;5028093;28;20404;-74
2023/01/11 12:43:28;;;;;;;14.13;4.32;;;11.30;52.30;;;;;;5052707;28;20393;-74
2023/01/11 12:46:15;;;;;;;18.85;5.10;;;11.30;53.90;;;;;;5059975;28;20377;-73
2023/01/11 12:49:11;;;;;;;18.50;4.90;;;11.30;49.10;;;;;;5054814;28;20807;-72
2023/01/11 12:51:46;;;;;;;18.15;3.85;;;11.30;48.60;;;;;;5055374;28;20401;-73
2023/01/11 12:54:33;;;;;;;15.50;4.32;;;11.30;47.40;;;;;;5055687;28;20378;-72
2023/01/11 12:57:08;;;;;;;16.92;3.80;;;11.30;46.60;;;;;;5054698;28;20373;-74
2023/01/11 13:00:06;;;;;;;15.38;4.40;;;11.20;44.90;;;;;;5050931;28;20381;-73
2023/01/11 13:02:56;;;;;;;16.02;4.15;;;11.10;45.90;;;;;;5050401;28;20381;-74
2023/01/11 13:05:27;;;;;;;18.60;4.30;;;11.10;47.40;;;;;;5050532;28;20393;-74
2023/01/11 13:08:18;;;;;;;19.48;3.90;;;11.00;45.40;;;;;;5050588;28;20381;-74
2023/01/11 13:11:33;;;;;;;16.03;4.30;;;11.10;45.00;;;;;;5051004;28;20417;-72
2023/01/11 13:14:25;;;;;;;20.85;5.10;;;11.20;45.00;;;;;;5052295;28;20373;-74
2023/01/11 13:17:17;;;;;;;21.27;4.60;;;11.20;44.50;;;;;;5054174;28;20496;-74
2023/01/11 13:20:13;;;;;;;18.85;3.90;;;11.30;46.30;;;;;;5053516;28;20373;-75
2023/01/11 13:22:43;;;;;;;23.67;5.10;;;11.30;46.00;;;;;;5050195;28;20382;-72
2023/01/11 13:25:20;;;;;;;32.87;5.17;;;11.30;46.40;;;;;;5050105;28;20385;-73
2023/01/11 13:27:48;;;;;;;26.65;4.80;;;11.30;46.40;;;;;;5049916;28;20378;-73
2023/01/11 13:30:16;;;;;;;19.60;4.40;;;11.40;45.50;;;;;;5049956;28;20374;-73
2023/01/11 13:32:51;;;;;;;19.30;4.32;;;11.50;45.00;;;;;;5050112;28;20377;-72
2023/01/11 13:35:23;;;;;;;18.02;4.50;;;11.70;44.00;;;;;;5050438;28;20386;-74
2023/01/11 13:38:05;;;;;;;22.38;5.22;;;11.90;42.90;;;;;;5050220;28;20373;-73
2023/01/11 13:40:42;;;;;;;17.50;4.07;;;11.90;42.00;;;;;;5050775;28;20936;-73